< Typhoon 202208 2022 Season Typhoon 202210 >
Typhoon 202209 (MA-ON)
General InformationTrack Information on Google MapsDetailed Wind InformationForecast History on Google MapsAccess Analytics MapList of All Images || NewsDisaster Info.JMA Disaster Info. XMLWeblogTrackbackTyphoon FrontTwiphoonTyphoon Now!Typhoon ImaginationResourceGoogle EarthGE AnimationAtom FeedGeoJSON
Detalied Best Track (Time Zone = UTC)
Year Month Day Hour Lat. Long. Pressure (hPa) Wind (kt) Class Image Chart
2022 8 21 06 17.2 127.2 1000 30 2 Image Chart
2022 8 21 09 17.1 126.7 1000 30 2 Image Chart
2022 8 21 12 17.0 126.3 1002 30 2 Image Chart
2022 8 21 15 16.9 125.9 1002 30 2 Image Chart
2022 8 21 18 16.5 125.4 1000 30 2 Image Chart
2022 8 21 21 16.4 124.9 1000 30 2 Image Chart
2022 8 22 00 16.4 124.4 1000 30 2 Image Chart
2022 8 22 03 16.3 124.1 998 35 3 Image Chart
2022 8 22 06 16.2 123.7 996 40 3 Image Chart
2022 8 22 09 16.2 123.5 996 40 3 Image Chart
2022 8 22 12 16.2 123.3 992 45 3 Image Chart
2022 8 22 15 16.2 123.2 992 45 3 Image Chart
2022 8 22 18 16.2 123.2 990 50 4 Image Chart
2022 8 22 21 16.6 123.2 990 50 4 Image Chart
2022 8 23 00 16.9 123.0 985 55 4 Image Chart
2022 8 23 03 17.5 122.4 985 55 4 Image Chart
2022 8 23 06 17.9 121.6 985 55 4 Image Chart
2022 8 23 09 18.1 121.0 985 55 4 Image Chart
2022 8 23 12 18.5 120.3 985 55 4 Image Chart
2022 8 23 15 18.9 119.7 985 55 4 Image Chart
2022 8 23 18 18.9 118.9 985 55 4 Image Chart
2022 8 23 21 19.0 118.0 985 55 4 Image Chart
2022 8 24 00 19.0 117.0 985 55 4 Image Chart
2022 8 24 03 19.0 116.6 985 55 4 Image Chart
2022 8 24 06 19.3 116.0 980 60 4 Image Chart
2022 8 24 09 19.7 115.4 980 60 4 Image Chart
2022 8 24 12 19.9 114.8 985 55 4 Image Chart
2022 8 24 15 20.0 114.1 985 55 4 Image Chart
2022 8 24 18 20.5 113.5 985 55 4 Image Chart
2022 8 24 21 21.0 112.8 985 55 4 Image Chart
2022 8 25 00 21.1 112.0 990 50 4 Image Chart
2022 8 25 03 21.5 110.9 990 50 4 Image Chart
2022 8 25 06 21.6 109.7 992 45 3 Image Chart
2022 8 25 09 21.7 108.8 992 45 3 Image Chart
2022 8 25 12 21.4 108.1 992 45 3 Image Chart
2022 8 25 15 21.6 107.1 992 45 3 Image Chart
2022 8 25 18 21.4 106.4 992 45 3 Image Chart
2022 8 25 21 21.4 105.4 996 40 3 Image Chart
2022 8 26 00 21.0 105.0 1000 0 2 Image Chart
Japan Meteorological Agency Best Track Data | Correction Date : 2022-08-26
< Typhoon 202208 2022 Season Typhoon 202210 >

Help